createdAt,value
2018-03-11T00:02:08.614Z,6.80
2018-03-11T00:04:35.471Z,6.80
2018-03-11T00:07:02.373Z,6.70
2018-03-11T00:09:30.012Z,6.70
2018-03-11T00:11:56.866Z,6.70
2018-03-11T00:14:24.454Z,6.60
2018-03-11T00:16:51.331Z,6.60
2018-03-11T00:19:18.173Z,6.60
2018-03-11T00:21:45.023Z,6.60
2018-03-11T00:24:11.894Z,6.50
2018-03-11T00:26:39.494Z,6.50
2018-03-11T00:29:06.339Z,6.40
2018-03-11T00:31:33.179Z,6.40
2018-03-11T00:34:00.050Z,6.30
2018-03-11T00:36:26.870Z,6.10
2018-03-11T00:38:53.724Z,6.10
2018-03-11T00:41:20.574Z,6.10
2018-03-11T00:43:47.427Z,6.10
2018-03-11T00:46:14.306Z,6.10
2018-03-11T00:48:41.153Z,6.00
2018-03-11T00:51:08.013Z,6.00
2018-03-11T00:53:34.882Z,5.90
2018-03-11T00:56:01.768Z,5.80
2018-03-11T00:58:29.364Z,5.70
2018-03-11T01:00:56.261Z,5.70
2018-03-11T01:03:23.150Z,5.80
2018-03-11T01:05:49.986Z,5.70
2018-03-11T01:08:16.826Z,5.70
2018-03-11T01:10:43.713Z,5.70
2018-03-11T01:13:10.550Z,5.60
2018-03-11T01:15:37.451Z,5.60
2018-03-11T01:18:04.306Z,5.60
2018-03-11T01:20:31.150Z,5.40
2018-03-11T01:22:58.049Z,5.30
2018-03-11T01:25:25.638Z,5.20
2018-03-11T01:27:53.212Z,5.20
2018-03-11T01:30:20.083Z,5.20
2018-03-11T01:32:46.922Z,5.20
2018-03-11T01:35:13.764Z,5.20
2018-03-11T01:37:40.648Z,5.10
2018-03-11T01:40:07.507Z,5.00
2018-03-11T01:42:34.351Z,4.90
2018-03-11T01:45:01.218Z,4.90
2018-03-11T01:47:28.069Z,4.90
2018-03-11T01:49:54.926Z,4.90
2018-03-11T01:52:21.743Z,4.90
2018-03-11T01:54:48.630Z,4.90
2018-03-11T01:57:15.471Z,4.90
2018-03-11T01:59:42.364Z,4.90
2018-03-11T02:02:09.226Z,4.80
2018-03-11T02:04:36.108Z,4.70
2018-03-11T02:07:02.934Z,4.70
2018-03-11T02:09:29.803Z,4.70
2018-03-11T02:11:57.372Z,4.60
2018-03-11T02:14:24.207Z,4.50
2018-03-11T02:16:51.070Z,4.60
2018-03-11T02:19:17.939Z,4.60
2018-03-11T02:21:45.506Z,4.60
2018-03-11T02:24:12.376Z,4.60
2018-03-11T02:26:39.998Z,4.60
2018-03-11T02:29:06.851Z,4.60
2018-03-11T02:31:33.679Z,4.60
2018-03-11T02:34:00.547Z,4.60
2018-03-11T02:36:27.363Z,4.70
2018-03-11T02:38:54.956Z,4.50
2018-03-11T02:41:22.575Z,4.50
2018-03-11T02:43:49.435Z,4.50
2018-03-11T02:46:16.248Z,4.50
2018-03-11T02:48:43.116Z,4.50
2018-03-11T02:51:09.981Z,4.50
2018-03-11T02:53:36.827Z,4.50
2018-03-11T02:56:03.678Z,4.50
2018-03-11T02:58:31.270Z,4.50
2018-03-11T03:00:58.123Z,4.50
2018-03-11T03:03:24.959Z,4.40
2018-03-11T03:05:51.826Z,4.30
2018-03-11T03:08:18.651Z,4.30
2018-03-11T03:10:45.503Z,4.30
2018-03-11T03:13:12.365Z,4.30
2018-03-11T03:15:39.209Z,4.20
2018-03-11T03:18:06.044Z,4.20
2018-03-11T03:20:33.667Z,4.10
2018-03-11T03:23:00.508Z,4.10
2018-03-11T03:25:28.072Z,4.10
2018-03-11T03:27:54.914Z,4.10
2018-03-11T03:30:21.781Z,4.10
2018-03-11T03:32:48.667Z,4.10
2018-03-11T03:35:15.494Z,4.10
2018-03-11T03:37:42.331Z,4.10
2018-03-11T03:40:09.192Z,4.20
2018-03-11T03:42:36.014Z,4.20
2018-03-11T03:45:02.927Z,4.20
2018-03-11T03:47:29.799Z,4.20
2018-03-11T03:49:56.634Z,4.30
2018-03-11T03:52:23.486Z,4.30
2018-03-11T03:54:50.291Z,4.30
2018-03-11T03:57:17.135Z,4.30
2018-03-11T03:59:43.994Z,4.30
2018-03-11T04:02:10.822Z,4.20
2018-03-11T04:04:38.415Z,4.20
2018-03-11T04:07:05.270Z,4.20
2018-03-11T04:09:32.146Z,4.20
2018-03-11T04:11:59.011Z,4.20
2018-03-11T04:14:25.858Z,4.20
2018-03-11T04:16:52.679Z,4.20
2018-03-11T04:19:19.558Z,4.20
2018-03-11T04:21:46.386Z,4.20
2018-03-11T04:24:13.207Z,4.20
2018-03-11T04:26:40.059Z,4.20
2018-03-11T04:29:06.874Z,4.10
2018-03-11T04:31:34.463Z,4.00
2018-03-11T04:34:01.336Z,4.00
2018-03-11T04:36:28.174Z,4.10
2018-03-11T04:38:55.010Z,4.10
2018-03-11T04:41:21.875Z,4.00
2018-03-11T04:43:48.702Z,4.00
2018-03-11T04:46:15.535Z,4.00
2018-03-11T04:48:42.400Z,4.00
2018-03-11T04:51:09.263Z,4.00
2018-03-11T04:53:36.111Z,3.90
2018-03-11T04:56:03.166Z,3.80
2018-03-11T04:58:29.959Z,3.80
2018-03-11T05:00:56.783Z,3.90
2018-03-11T05:03:23.647Z,3.80
2018-03-11T05:05:50.475Z,3.80
2018-03-11T05:08:17.360Z,3.70
2018-03-11T05:10:44.199Z,3.70
2018-03-11T05:13:11.051Z,3.70
2018-03-11T05:15:37.886Z,3.70
2018-03-11T05:18:04.734Z,3.70
2018-03-11T05:20:31.570Z,3.80
2018-03-11T05:22:58.411Z,3.80
2018-03-11T05:25:25.282Z,3.80
2018-03-11T05:27:52.859Z,3.70
2018-03-11T05:30:20.446Z,3.70
2018-03-11T05:32:47.308Z,3.70
2018-03-11T05:35:14.145Z,3.70
2018-03-11T05:37:40.996Z,3.80
2018-03-11T05:40:08.010Z,3.80
2018-03-11T05:42:35.654Z,4.00
2018-03-11T05:45:03.440Z,3.90
2018-03-11T05:47:30.512Z,3.80
2018-03-11T05:49:57.490Z,3.80
2018-03-11T05:52:25.151Z,3.70
2018-03-11T05:54:52.110Z,3.70
2018-03-11T05:57:19.030Z,3.70
2018-03-11T05:59:46.048Z,3.80
2018-03-11T06:02:13.814Z,3.80
2018-03-11T06:04:41.654Z,3.90
2018-03-11T06:07:08.522Z,3.90
2018-03-11T06:09:35.430Z,4.00
2018-03-11T06:12:03.078Z,3.90
2018-03-11T06:14:30.111Z,3.90
2018-03-11T06:16:57.107Z,4.00
2018-03-11T06:19:24.051Z,4.10
2018-03-11T06:21:51.715Z,4.30
2018-03-11T06:24:18.566Z,4.20
2018-03-11T06:26:45.591Z,4.30
2018-03-11T06:29:12.510Z,4.40
2018-03-11T06:31:40.079Z,4.50
2018-03-11T06:34:07.891Z,4.50
2018-03-11T06:36:34.875Z,4.50
2018-03-11T06:39:01.683Z,4.50
2018-03-11T06:41:28.503Z,4.60
2018-03-11T06:43:55.351Z,4.70
2018-03-11T06:46:22.184Z,4.90
2018-03-11T06:48:49.746Z,5.10
2018-03-11T06:51:16.602Z,5.10
2018-03-11T06:53:43.441Z,5.20
2018-03-11T06:56:10.291Z,5.40
2018-03-11T06:58:37.150Z,5.50
2018-03-11T07:01:04.024Z,5.60
2018-03-11T07:03:31.604Z,5.90
2018-03-11T07:05:58.475Z,5.90
2018-03-11T07:08:25.295Z,6.00
2018-03-11T07:10:52.150Z,6.10
2018-03-11T07:13:19.066Z,6.20
2018-03-11T07:15:46.161Z,6.40
2018-03-11T07:18:12.996Z,6.40
2018-03-11T07:20:39.859Z,6.50
2018-03-11T07:23:06.731Z,6.60
2018-03-11T07:25:34.310Z,6.80
2018-03-11T07:28:01.200Z,6.80
2018-03-11T07:30:28.054Z,6.90
2018-03-11T07:32:55.627Z,7.10
2018-03-11T07:35:23.229Z,7.20
2018-03-11T07:37:50.420Z,7.20
2018-03-11T07:40:17.338Z,7.30
2018-03-11T07:42:44.160Z,7.30
2018-03-11T07:45:11.007Z,7.40
2018-03-11T07:47:37.882Z,7.60
2018-03-11T07:50:04.745Z,7.70
2018-03-11T07:52:31.563Z,7.80
2018-03-11T07:54:58.422Z,7.90
2018-03-11T07:57:25.259Z,8.00
2018-03-11T07:59:52.420Z,8.10
2018-03-11T08:02:19.228Z,8.20
2018-03-11T08:04:46.055Z,8.30
2018-03-11T08:07:12.986Z,8.40
2018-03-11T08:09:39.854Z,8.40
2018-03-11T08:12:06.911Z,8.40
2018-03-11T08:14:33.844Z,8.50
2018-03-11T08:17:00.702Z,8.60
2018-03-11T08:19:27.579Z,8.70
2018-03-11T08:21:54.679Z,8.80
2018-03-11T08:24:21.608Z,8.90
2018-03-11T08:26:48.456Z,8.90
2018-03-11T08:29:15.330Z,9.10
2018-03-11T08:31:42.321Z,9.10
2018-03-11T08:34:09.529Z,9.20
2018-03-11T08:36:37.356Z,9.30
2018-03-11T08:39:05.288Z,9.50
2018-03-11T08:41:32.889Z,9.70
2018-03-11T08:43:59.887Z,9.70
2018-03-11T08:46:27.640Z,10.10
2018-03-11T08:48:55.404Z,10.30
2018-03-11T08:51:22.243Z,10.30
2018-03-11T08:53:49.131Z,10.40
2018-03-11T08:56:16.855Z,10.40
2018-03-11T08:58:44.486Z,10.40
2018-03-11T09:01:11.378Z,10.40
2018-03-11T09:03:38.236Z,10.50
2018-03-11T09:06:05.974Z,11.00
2018-03-11T09:08:32.890Z,11.00
2018-03-11T09:10:59.775Z,11.30
2018-03-11T09:13:26.681Z,11.30
2018-03-11T09:15:53.597Z,11.30
2018-03-11T09:18:20.423Z,11.30
2018-03-11T09:20:47.259Z,11.40
2018-03-11T09:23:14.094Z,11.40
2018-03-11T09:25:40.935Z,11.40
2018-03-11T09:28:07.798Z,11.50
2018-03-11T09:30:35.922Z,11.70
2018-03-11T09:33:02.865Z,11.90
2018-03-11T09:35:29.710Z,12.30
2018-03-11T09:37:56.587Z,12.50
2018-03-11T09:40:23.411Z,12.60
2018-03-11T09:42:50.242Z,12.70
2018-03-11T09:45:17.104Z,12.80
2018-03-11T09:47:43.930Z,13.20
2018-03-11T09:50:10.766Z,13.40
2018-03-11T09:52:37.627Z,13.60
2018-03-11T09:55:04.515Z,13.50
2018-03-11T09:57:31.542Z,13.60
2018-03-11T09:59:58.607Z,13.70
2018-03-11T10:02:26.195Z,13.50
2018-03-11T10:04:53.036Z,13.50
2018-03-11T10:07:19.882Z,13.70
2018-03-11T10:09:47.447Z,14.00
2018-03-11T10:12:14.403Z,14.00
2018-03-11T10:14:42.346Z,13.90
2018-03-11T10:17:09.223Z,13.90
2018-03-11T10:19:36.055Z,14.00
2018-03-11T10:22:02.938Z,14.00
2018-03-11T10:24:29.742Z,14.10
2018-03-11T10:26:56.796Z,14.30
2018-03-11T10:29:23.693Z,14.40
2018-03-11T10:31:50.531Z,14.70
2018-03-11T10:34:17.547Z,14.70
2018-03-11T10:36:44.436Z,14.80
2018-03-11T10:39:12.014Z,14.40
2018-03-11T10:41:39.087Z,14.40
2018-03-11T10:44:06.012Z,14.60
2018-03-11T10:46:32.979Z,14.60
2018-03-11T10:48:59.911Z,14.70
2018-03-11T10:51:26.722Z,14.80
2018-03-11T10:53:54.318Z,14.90
2018-03-11T10:56:21.329Z,14.80
2018-03-11T10:58:48.235Z,15.00
2018-03-11T11:01:15.958Z,15.20
2018-03-11T11:03:48.848Z,15.10
2018-03-11T11:06:15.726Z,15.00
2018-03-11T11:08:43.334Z,15.30
2018-03-11T11:11:10.177Z,15.30
2018-03-11T11:13:37.091Z,15.50
2018-03-11T11:16:03.926Z,15.50
2018-03-11T11:18:30.957Z,15.30
2018-03-11T11:20:58.608Z,15.30
2018-03-11T11:23:25.441Z,15.30
2018-03-11T11:25:52.523Z,15.30
2018-03-11T11:28:19.443Z,15.50
2018-03-11T11:30:46.271Z,15.60
2018-03-11T11:33:13.150Z,15.60
2018-03-11T11:35:40.904Z,15.40
2018-03-11T11:38:07.950Z,15.40
2018-03-11T11:40:35.045Z,15.30
2018-03-11T11:43:02.663Z,15.60
2018-03-11T11:45:29.508Z,15.60
2018-03-11T11:47:56.351Z,15.70
2018-03-11T11:50:23.208Z,15.90
2018-03-11T11:52:50.019Z,16.60
2018-03-11T11:55:16.827Z,16.50
2018-03-11T11:57:43.687Z,16.40
2018-03-11T12:00:10.530Z,16.10
2018-03-11T12:02:37.375Z,15.80
2018-03-11T12:05:04.247Z,15.70
2018-03-11T12:07:31.087Z,15.50
2018-03-11T12:09:58.121Z,15.30
2018-03-11T12:12:25.047Z,15.40
2018-03-11T12:14:51.871Z,15.40
2018-03-11T12:17:19.036Z,15.80
2018-03-11T12:19:46.146Z,16.30
2018-03-11T12:22:13.146Z,16.40
2018-03-11T12:24:40.063Z,16.60
2018-03-11T12:27:06.913Z,16.20
2018-03-11T12:29:33.748Z,16.00
2018-03-11T12:32:01.370Z,15.80
2018-03-11T12:34:28.323Z,15.80
2018-03-11T12:36:55.440Z,16.00
2018-03-11T12:39:22.441Z,16.10
2018-03-11T12:41:49.598Z,15.90
2018-03-11T12:44:16.461Z,15.90
2018-03-11T12:46:43.306Z,15.80
2018-03-11T12:49:10.172Z,15.60
2018-03-11T12:51:37.063Z,15.30
2018-03-11T12:54:04.230Z,15.00
2018-03-11T12:56:31.161Z,14.70
2018-03-11T12:58:58.751Z,14.80
2018-03-11T13:01:25.634Z,14.70
2018-03-11T13:03:52.466Z,14.80
2018-03-11T13:06:19.391Z,14.70
2018-03-11T13:08:46.207Z,14.60
2018-03-11T13:11:13.038Z,14.60
2018-03-11T13:13:39.906Z,14.50
2018-03-11T13:16:06.747Z,14.50
2018-03-11T13:18:33.619Z,14.50
2018-03-11T13:21:08.316Z,14.60
2018-03-11T13:23:35.205Z,14.50
2018-03-11T13:26:02.791Z,14.40
2018-03-11T13:28:41.834Z,14.40
2018-03-11T13:31:08.707Z,14.50
2018-03-11T13:33:47.867Z,14.50
2018-03-11T13:36:15.370Z,14.60
2018-03-11T13:38:54.759Z,15.10
2018-03-11T13:41:21.683Z,16.00
2018-03-11T13:43:48.506Z,16.70
2018-03-11T13:46:27.494Z,16.40
2018-03-11T13:48:55.119Z,17.40
2018-03-11T13:51:34.094Z,17.40
2018-03-11T13:54:00.966Z,17.70
2018-03-11T13:56:27.777Z,17.40
2018-03-11T13:58:54.650Z,16.50
2018-03-11T14:01:21.482Z,16.30
2018-03-11T14:03:48.326Z,16.10
2018-03-11T14:06:15.173Z,16.80
2018-03-11T14:08:42.003Z,17.50
2018-03-11T14:11:08.880Z,18.20
2018-03-11T14:13:35.762Z,18.40
2018-03-11T14:16:03.370Z,17.30
2018-03-11T14:18:30.207Z,17.30
2018-03-11T14:20:57.983Z,16.70
2018-03-11T14:23:24.851Z,16.00
2018-03-11T14:25:51.698Z,15.60
2018-03-11T14:28:18.634Z,15.40
2018-03-11T14:30:45.494Z,15.00
2018-03-11T14:33:12.342Z,14.90
2018-03-11T14:35:39.185Z,14.90
2018-03-11T14:38:06.787Z,14.60
2018-03-11T14:40:33.611Z,14.60
2018-03-11T14:43:00.522Z,14.60
2018-03-11T14:45:27.381Z,14.60
2018-03-11T14:47:54.247Z,14.60
2018-03-11T14:50:21.860Z,14.50
2018-03-11T14:52:49.515Z,14.40
2018-03-11T14:55:16.371Z,14.40
2018-03-11T14:57:43.515Z,14.30
2018-03-11T15:00:10.672Z,14.30
2018-03-11T15:02:38.301Z,14.30
2018-03-11T15:05:05.475Z,14.30
2018-03-11T15:07:32.322Z,14.20
2018-03-11T15:09:59.936Z,14.00
2018-03-11T15:12:26.784Z,14.00
2018-03-11T15:14:53.671Z,14.00
2018-03-11T15:17:20.507Z,14.00
2018-03-11T15:19:47.339Z,14.10
2018-03-11T15:22:14.226Z,14.10
2018-03-11T15:24:41.811Z,14.10
2018-03-11T15:27:08.659Z,14.00
2018-03-11T15:29:35.532Z,14.00
2018-03-11T15:32:02.427Z,13.90
2018-03-11T15:34:29.263Z,13.80
2018-03-11T15:36:56.164Z,13.80
2018-03-11T15:39:23.026Z,13.80
2018-03-11T15:41:49.862Z,13.70
2018-03-11T15:44:16.715Z,13.60
2018-03-11T15:46:43.530Z,13.60
2018-03-11T15:49:10.380Z,13.50
2018-03-11T15:51:37.227Z,13.40
2018-03-11T15:54:04.076Z,13.40
2018-03-11T15:56:30.926Z,13.30
2018-03-11T15:58:57.779Z,13.30
2018-03-11T16:01:25.358Z,13.30
2018-03-11T16:03:52.186Z,13.30
2018-03-11T16:06:19.091Z,13.30
2018-03-11T16:08:45.930Z,13.30
2018-03-11T16:11:12.936Z,13.20
2018-03-11T16:13:39.896Z,13.10
2018-03-11T16:16:06.722Z,13.00
2018-03-11T16:18:33.542Z,13.00
2018-03-11T16:21:01.174Z,12.90
2018-03-11T16:23:28.018Z,12.90
2018-03-11T16:25:54.962Z,12.90
2018-03-11T16:28:22.562Z,12.80
2018-03-11T16:30:49.722Z,12.80
2018-03-11T16:33:16.604Z,12.80
2018-03-11T16:35:43.526Z,12.70
2018-03-11T16:38:10.687Z,12.70
2018-03-11T16:40:38.359Z,12.70
2018-03-11T16:43:06.311Z,12.70
2018-03-11T16:45:33.908Z,12.70
2018-03-11T16:48:00.810Z,12.60
2018-03-11T16:50:27.967Z,12.60
2018-03-11T16:52:55.002Z,12.60
2018-03-11T16:55:21.833Z,12.60
2018-03-11T16:57:48.854Z,12.60
2018-03-11T17:00:15.989Z,12.60
2018-03-11T17:02:43.671Z,12.60
2018-03-11T17:05:10.686Z,12.50
2018-03-11T17:07:37.602Z,12.50
2018-03-11T17:10:04.644Z,12.50
2018-03-11T17:12:31.541Z,12.40
2018-03-11T17:14:59.341Z,12.50
2018-03-11T17:17:26.219Z,12.40
2018-03-11T17:19:53.083Z,12.40
2018-03-11T17:22:19.924Z,12.40
2018-03-11T17:24:46.777Z,12.30
2018-03-11T17:27:13.831Z,12.20
2018-03-11T17:29:42.447Z,12.10
2018-03-11T17:32:09.417Z,12.00
2018-03-11T17:34:37.194Z,11.90
2018-03-11T17:37:05.578Z,11.80
2018-03-11T17:39:32.575Z,11.80
2018-03-11T17:42:00.311Z,11.60
2018-03-11T17:44:27.235Z,11.60
2018-03-11T17:46:54.119Z,11.60
2018-03-11T17:49:21.111Z,11.50
2018-03-11T17:51:48.023Z,11.40
2018-03-11T17:54:14.914Z,11.30
2018-03-11T17:56:41.858Z,11.40
2018-03-11T17:59:08.998Z,11.40
2018-03-11T18:01:37.216Z,11.30
2018-03-11T18:04:04.590Z,11.30
2018-03-11T18:06:31.747Z,11.30
2018-03-11T18:08:58.815Z,11.30
2018-03-11T18:11:25.686Z,11.20
2018-03-11T18:13:52.760Z,11.10
2018-03-11T18:16:20.886Z,11.00
2018-03-11T18:18:48.071Z,11.00
2018-03-11T18:21:15.283Z,10.90
2018-03-11T18:23:42.164Z,10.90
2018-03-11T18:26:09.066Z,10.80
2018-03-11T18:28:35.907Z,10.80
2018-03-11T18:31:02.836Z,10.80
2018-03-11T18:33:29.695Z,10.80
2018-03-11T18:35:56.574Z,10.70
2018-03-11T18:38:23.471Z,10.70
2018-03-11T18:40:50.294Z,10.60
2018-03-11T18:43:17.862Z,10.50
2018-03-11T18:45:44.738Z,10.50
2018-03-11T18:48:11.587Z,10.50
2018-03-11T18:50:38.427Z,10.40
2018-03-11T18:53:05.276Z,10.40
2018-03-11T18:55:32.418Z,10.40
2018-03-11T18:58:00.127Z,10.30
2018-03-11T19:00:26.999Z,10.30
2018-03-11T19:02:54.063Z,10.30
2018-03-11T19:05:21.919Z,10.30
2018-03-11T19:07:48.795Z,10.30
2018-03-11T19:10:15.900Z,10.30
2018-03-11T19:12:42.964Z,10.30
2018-03-11T19:15:10.443Z,10.30
2018-03-11T19:17:37.511Z,10.20
2018-03-11T19:20:04.355Z,10.20
2018-03-11T19:22:31.183Z,10.20
2018-03-11T19:24:58.719Z,10.30
2018-03-11T19:27:25.575Z,10.20
2018-03-11T19:29:52.419Z,10.20
2018-03-11T19:32:19.295Z,10.20
2018-03-11T19:34:47.007Z,10.10
2018-03-11T19:37:14.147Z,10.10
2018-03-11T19:39:41.079Z,10.10
2018-03-11T19:42:07.868Z,10.20
2018-03-11T19:44:36.582Z,10.20
2018-03-11T19:47:03.482Z,10.20
2018-03-11T19:49:30.486Z,10.30
2018-03-11T19:51:57.326Z,10.30
2018-03-11T19:54:24.181Z,10.30
2018-03-11T19:56:51.047Z,10.40
2018-03-11T19:59:17.883Z,10.40
2018-03-11T20:01:44.736Z,10.50
2018-03-11T20:04:11.590Z,10.50
2018-03-11T20:06:41.070Z,10.40
2018-03-11T20:09:08.248Z,10.40
2018-03-11T20:11:35.784Z,10.40
2018-03-11T20:14:02.887Z,10.40
2018-03-11T20:16:30.666Z,10.40
2018-03-11T20:18:57.659Z,10.40
2018-03-11T20:21:24.552Z,10.40
2018-03-11T20:23:52.256Z,10.40
2018-03-11T20:26:19.252Z,10.30
2018-03-11T20:28:46.138Z,10.30
2018-03-11T20:31:13.143Z,10.40
2018-03-11T20:33:40.102Z,10.40
2018-03-11T20:36:08.031Z,10.40
2018-03-11T20:38:34.989Z,10.40
2018-03-11T20:41:02.631Z,10.40
2018-03-11T20:43:30.526Z,10.30
2018-03-11T20:45:57.524Z,10.30
2018-03-11T20:48:25.121Z,10.30
2018-03-11T20:50:51.963Z,10.30
2018-03-11T20:53:18.832Z,10.30
2018-03-11T20:55:47.114Z,10.40
2018-03-11T20:58:14.691Z,10.40
2018-03-11T21:00:41.742Z,10.40
2018-03-11T21:03:09.431Z,10.40
2018-03-11T21:05:36.458Z,10.40
2018-03-11T21:08:03.327Z,10.40
2018-03-11T21:10:30.215Z,10.30
2018-03-11T21:12:57.124Z,10.30
2018-03-11T21:15:23.920Z,10.30
2018-03-11T21:17:50.782Z,10.30
2018-03-11T21:20:17.615Z,10.40
2018-03-11T21:22:44.447Z,10.30
2018-03-11T21:25:12.105Z,10.30
2018-03-11T21:27:38.954Z,10.20
2018-03-11T21:30:06.183Z,10.30
2018-03-11T21:32:33.754Z,10.30
2018-03-11T21:35:00.598Z,10.30
2018-03-11T21:37:28.183Z,10.30
2018-03-11T21:39:55.055Z,10.30
2018-03-11T21:42:21.962Z,10.30
2018-03-11T21:44:48.798Z,10.20
2018-03-11T21:47:16.447Z,10.30
2018-03-11T21:49:43.305Z,10.30
2018-03-11T21:52:10.914Z,10.20
2018-03-11T21:54:38.489Z,10.20
2018-03-11T21:57:05.377Z,10.20
2018-03-11T21:59:33.064Z,10.20
2018-03-11T22:01:59.915Z,10.20
2018-03-11T22:04:27.071Z,10.20
2018-03-11T22:06:54.715Z,10.10
2018-03-11T22:09:21.590Z,10.10
2018-03-11T22:11:48.675Z,10.10
2018-03-11T22:14:15.966Z,10.10
2018-03-11T22:16:43.379Z,10.10
2018-03-11T22:19:10.398Z,10.10
2018-03-11T22:21:37.238Z,10.10
2018-03-11T22:24:04.322Z,10.10
2018-03-11T22:26:31.251Z,10.20
2018-03-11T22:28:58.080Z,10.20
2018-03-11T22:31:24.966Z,10.20
2018-03-11T22:33:52.526Z,10.10
2018-03-11T22:36:19.349Z,10.10
2018-03-11T22:38:46.198Z,10.20
2018-03-11T22:41:13.035Z,10.20
2018-03-11T22:43:39.887Z,10.20
2018-03-11T22:46:07.447Z,10.10
2018-03-11T22:48:34.282Z,10.10
2018-03-11T22:51:01.126Z,10.10
2018-03-11T22:53:27.982Z,10.10
2018-03-11T22:55:54.810Z,10.00
2018-03-11T22:58:21.630Z,10.00
2018-03-11T23:00:48.487Z,9.90
2018-03-11T23:03:15.348Z,9.90
2018-03-11T23:05:42.924Z,9.90
2018-03-11T23:08:09.807Z,9.90
2018-03-11T23:10:38.299Z,9.80
2018-03-11T23:13:05.147Z,9.80
2018-03-11T23:15:31.960Z,9.80
2018-03-11T23:17:58.844Z,9.90
2018-03-11T23:20:25.682Z,9.90
2018-03-11T23:22:52.539Z,9.90
2018-03-11T23:25:19.364Z,9.80
2018-03-11T23:27:46.214Z,9.80
2018-03-11T23:30:13.064Z,9.80
2018-03-11T23:32:39.903Z,9.70
2018-03-11T23:35:06.721Z,9.70
2018-03-11T23:37:33.579Z,9.80
2018-03-11T23:40:00.403Z,9.70
2018-03-11T23:42:27.227Z,9.70
2018-03-11T23:44:54.099Z,9.70
2018-03-11T23:47:20.945Z,9.70
2018-03-11T23:49:47.753Z,9.70
2018-03-11T23:52:14.654Z,9.70
2018-03-11T23:54:42.226Z,9.60
2018-03-11T23:57:09.083Z,9.60
2018-03-11T23:59:35.945Z,9.60
